Time;durP1;ratioP1;P1;durP2;ratioP2;P2;SDS_P1;SDS_P2;PMS_P1;PMS_P2;Temp;Humidity;BMP_temperature;BMP_pressure;BME280_temperature;BME280_humidity;BME280_pressure;Samples;Min_cycle;Max_cycle;Signal;HPM_P1;HPM_P2
2023/06/05 00:00:09;;;;;;;8.07;6.72;;;410.40;2355.20;;;;;;5010062;28;20030;-56
2023/06/05 00:02:35;;;;;;;8.38;7.00;;;410.50;2355.20;;;;;;5009811;28;20026;-55
2023/06/05 00:05:01;;;;;;;8.95;5.90;;;410.50;2355.20;;;;;;5009913;28;20037;-55
2023/06/05 00:07:27;;;;;;;7.68;6.28;;;410.50;2355.20;;;;;;5020770;28;20030;-56
2023/06/05 00:09:53;;;;;;;10.10;6.00;;;410.40;2355.20;;;;;;5009669;28;20369;-56
2023/06/05 00:12:18;;;;;;;8.02;6.15;;;410.40;2355.20;;;;;;5009606;28;20025;-58
2023/06/05 00:14:44;;;;;;;8.57;6.72;;;410.40;2355.20;;;;;;5009886;28;20390;-55
2023/06/05 00:17:10;;;;;;;8.45;6.38;;;410.30;2355.20;;;;;;5009577;28;20026;-55
2023/06/05 00:19:36;;;;;;;9.30;6.07;;;410.20;2355.20;;;;;;5010032;28;20384;-59
2023/06/05 00:22:02;;;;;;;12.23;6.75;;;410.20;2355.20;;;;;;5009415;28;20496;-55
2023/06/05 00:24:27;;;;;;;7.13;6.03;;;410.20;2355.20;;;;;;5010010;28;20029;-55
2023/06/05 00:26:54;;;;;;;11.15;6.43;;;410.20;2355.20;;;;;;5008905;28;20519;-55
2023/06/05 00:29:19;;;;;;;10.98;6.82;;;410.20;2355.20;;;;;;5009123;28;20034;-55
2023/06/05 00:31:46;;;;;;;10.30;5.85;;;410.20;2355.20;;;;;;5022342;28;20077;-54
2023/06/05 00:34:13;;;;;;;7.22;5.75;;;410.20;2355.20;;;;;;5009593;28;20034;-55
2023/06/05 00:36:40;;;;;;;7.90;6.13;;;410.10;2355.20;;;;;;5009089;28;20033;-56
2023/06/05 00:39:06;;;;;;;8.10;6.68;;;410.10;2355.20;;;;;;5011847;28;20037;-58
2023/06/05 00:41:32;;;;;;;7.88;6.22;;;410.00;2355.20;;;;;;5028502;28;20049;-58
2023/06/05 00:43:58;;;;;;;14.95;6.38;;;409.80;2355.20;;;;;;5028975;28;20022;-55
2023/06/05 00:46:24;;;;;;;8.48;7.00;;;409.70;2355.20;;;;;;5029079;28;20035;-55
2023/06/05 00:48:50;;;;;;;15.10;7.32;;;409.60;2355.20;;;;;;5028381;28;20477;-56
2023/06/05 00:51:16;;;;;;;8.85;7.15;;;384.90;2329.60;;;;;;5029119;28;20101;-58
2023/06/05 00:53:45;;;;;;;8.55;6.00;;;409.60;2355.20;;;;;;5028638;28;20491;-58
2023/06/05 00:56:11;;;;;;;10.43;6.20;;;409.60;2355.20;;;;;;5024540;28;20076;-56
2023/06/05 00:58:37;;;;;;;10.70;6.25;;;409.60;2355.20;;;;;;5019800;28;20419;-56
2023/06/05 01:01:06;;;;;;;10.50;6.60;;;409.60;2355.20;;;;;;5028776;28;20040;-56
2023/06/05 01:03:35;;;;;;;7.05;5.97;;;409.60;2355.20;;;;;;5028554;28;20112;-57
2023/06/05 01:06:04;;;;;;;13.15;6.57;;;409.70;2355.20;;;;;;5028158;28;20034;-57
2023/06/05 01:08:41;;;;;;;9.07;7.18;;;409.60;2355.20;;;;;;5028713;28;20063;-54
2023/06/05 01:11:14;;;;;;;9.95;6.38;;;409.60;2355.20;;;;;;5028830;28;20030;-59
2023/06/05 01:13:47;;;;;;;7.10;5.75;;;409.60;2355.20;;;;;;5026039;28;20029;-62
2023/06/05 01:16:14;;;;;;;9.25;6.60;;;409.60;2355.20;;;;;;5016344;28;20025;-61
2023/06/05 01:18:40;;;;;;;9.32;7.32;;;409.60;2355.20;;;;;;5028384;28;20038;-56
2023/06/05 01:21:14;;;;;;;9.15;6.78;;;409.60;2355.20;;;;;;5028755;28;20075;-55
2023/06/05 01:23:44;;;;;;;7.90;6.70;;;409.70;2355.20;;;;;;5028646;28;20053;-60
2023/06/05 01:26:16;;;;;;;8.48;6.63;;;409.70;2355.20;;;;;;5028193;28;20056;-60
2023/06/05 01:28:47;;;;;;;7.60;6.00;;;409.60;2355.20;;;;;;5028573;28;20030;-55
2023/06/05 01:31:16;;;;;;;10.52;6.85;;;409.60;2355.20;;;;;;5028431;28;20045;-56
2023/06/05 01:34:01;;;;;;;9.63;6.82;;;409.70;2355.20;;;;;;5028490;28;20020;-54
2023/06/05 01:36:29;;;;;;;11.13;6.05;;;409.70;2355.20;;;;;;5028595;28;20733;-61
2023/06/05 01:38:58;;;;;;;9.32;6.40;;;409.60;2355.20;;;;;;5028726;28;20435;-61
2023/06/05 01:41:26;;;;;;;7.65;6.05;;;409.60;2355.20;;;;;;5028653;28;20404;-61
2023/06/05 01:43:53;;;;;;;8.02;6.15;;;384.90;2329.60;;;;;;5027493;28;20384;-55
2023/06/05 01:46:22;;;;;;;9.00;6.68;;;384.70;2329.60;;;;;;5028484;28;20036;-55
2023/06/05 01:48:50;;;;;;;6.60;5.72;;;384.70;2329.60;;;;;;5027069;28;20092;-62
2023/06/05 01:51:15;;;;;;;8.57;6.57;;;384.70;2329.60;;;;;;5029623;28;20045;-59
2023/06/05 01:53:41;;;;;;;8.43;6.13;;;384.70;2329.60;;;;;;5032164;28;20380;-55
2023/06/05 01:56:08;;;;;;;7.82;6.45;;;384.70;2329.60;;;;;;5032330;28;20027;-55
2023/06/05 01:58:35;;;;;;;10.30;6.18;;;384.70;2329.60;;;;;;5032307;28;20021;-59
2023/06/05 02:01:00;;;;;;;6.45;5.50;;;384.60;2329.60;;;;;;5031919;28;20379;-57
2023/06/05 02:03:27;;;;;;;11.10;6.55;;;384.70;2329.60;;;;;;5031969;28;20036;-61
2023/06/05 02:05:53;;;;;;;9.27;6.65;;;384.70;2329.60;;;;;;5031736;28;20049;-58
2023/06/05 02:08:19;;;;;;;8.82;5.95;;;384.60;2329.60;;;;;;5031774;28;20076;-55
2023/06/05 02:10:46;;;;;;;7.85;6.30;;;384.60;2329.60;;;;;;5031782;28;20084;-57
2023/06/05 02:13:12;;;;;;;9.35;6.97;;;384.60;2329.60;;;;;;5031997;28;20029;-54
2023/06/05 02:15:38;;;;;;;6.72;5.72;;;384.60;2329.60;;;;;;5031712;28;20490;-55
2023/06/05 02:18:04;;;;;;;10.65;6.43;;;384.70;2329.60;;;;;;5031540;28;20029;-55
2023/06/05 02:20:30;;;;;;;15.05;6.93;;;384.70;2329.60;;;;;;5031601;28;20361;-60
2023/06/05 02:22:56;;;;;;;10.02;6.95;;;384.70;2329.60;;;;;;5031618;28;20490;-55
2023/06/05 02:25:25;;;;;;;9.07;6.53;;;384.70;2329.60;;;;;;5031377;28;20079;-55
2023/06/05 02:27:52;;;;;;;14.88;6.30;;;384.80;2329.60;;;;;;5031671;28;20022;-54
2023/06/05 02:30:18;;;;;;;10.02;6.55;;;384.90;2329.60;;;;;;5031529;28;20041;-55
2023/06/05 02:32:43;;;;;;;9.13;6.10;;;409.60;2355.20;;;;;;5031385;28;20018;-55
2023/06/05 02:35:10;;;;;;;9.30;6.90;;;409.60;2355.20;;;;;;5031288;28;20021;-55
2023/06/05 02:37:43;;;;;;;10.77;6.75;;;409.60;2355.20;;;;;;5031319;28;20047;-55
2023/06/05 02:40:13;;;;;;;11.50;6.75;;;409.60;2355.20;;;;;;5031334;28;20029;-55
2023/06/05 02:42:40;;;;;;;11.10;7.68;;;409.70;2355.20;;;;;;5031853;28;20025;-55
2023/06/05 02:45:07;;;;;;;10.20;7.20;;;409.70;2355.20;;;;;;5031296;28;20731;-55
2023/06/05 02:47:33;;;;;;;8.48;6.53;;;409.70;2355.20;;;;;;5031041;28;20025;-60
2023/06/05 02:49:59;;;;;;;10.35;7.30;;;409.80;2355.20;;;;;;5031047;28;20037;-55
2023/06/05 02:52:25;;;;;;;13.40;7.32;;;409.80;2355.20;;;;;;5031704;28;20387;-57
2023/06/05 02:54:51;;;;;;;10.52;7.82;;;409.90;2355.20;;;;;;5030867;28;20104;-55
2023/06/05 02:57:17;;;;;;;13.07;8.38;;;409.90;2355.20;;;;;;5031369;28;20037;-55
2023/06/05 02:59:43;;;;;;;14.48;9.45;;;409.90;2355.20;;;;;;5031056;28;20031;-55
2023/06/05 03:02:11;;;;;;;14.63;9.70;;;409.90;2355.20;;;;;;5030097;28;20017;-55
2023/06/05 03:04:39;;;;;;;19.30;11.18;;;409.90;2355.20;;;;;;5017441;28;20516;-61
2023/06/05 03:07:05;;;;;;;37.85;12.57;;;409.90;2355.20;;;;;;5030879;28;20064;-56
2023/06/05 03:09:31;;;;;;;37.65;11.93;;;409.90;2355.20;;;;;;5030823;28;20037;-55
2023/06/05 03:11:58;;;;;;;24.35;10.85;;;409.60;2355.20;;;;;;5031062;28;20052;-55
2023/06/05 03:14:24;;;;;;;46.30;13.23;;;409.60;2355.20;;;;;;5030811;28;20371;-60
2023/06/05 03:16:50;;;;;;;51.45;13.05;;;409.60;2355.20;;;;;;5030063;28;20107;-57
2023/06/05 03:19:16;;;;;;;96.43;17.45;;;409.60;2355.20;;;;;;5030999;28;20057;-58
2023/06/05 03:21:42;;;;;;;37.65;13.55;;;409.70;2355.20;;;;;;5030671;28;20716;-55
2023/06/05 03:24:14;;;;;;;70.55;15.43;;;409.70;2355.20;;;;;;5030894;28;20033;-55
2023/06/05 03:26:43;;;;;;;73.38;17.08;;;409.70;2355.20;;;;;;5030548;28;20100;-56
2023/06/05 03:29:10;;;;;;;109.45;18.95;;;409.70;2355.20;;;;;;5030854;28;20676;-55
2023/06/05 03:31:37;;;;;;;49.80;15.43;;;409.80;2355.20;;;;;;5030171;28;20021;-54
2023/06/05 03:34:03;;;;;;;60.92;15.75;;;409.80;2355.20;;;;;;5030068;28;20026;-55
2023/06/05 03:36:30;;;;;;;65.90;15.23;;;409.90;2150.40;;;;;;5030154;28;20037;-56
2023/06/05 03:38:56;;;;;;;53.50;17.08;;;409.80;2355.20;;;;;;5030288;28;20036;-54
2023/06/05 03:41:22;;;;;;;39.35;14.05;;;409.90;2355.20;;;;;;5029961;28;20060;-57
2023/06/05 03:43:52;;;;;;;65.93;14.27;;;409.90;2355.20;;;;;;5030274;28;20017;-59
2023/06/05 03:46:21;;;;;;;44.25;15.73;;;410.10;2355.20;;;;;;5030110;28;20144;-54
2023/06/05 03:48:48;;;;;;;34.13;13.27;;;410.20;2355.20;;;;;;5029821;28;20088;-56
2023/06/05 03:51:18;;;;;;;28.55;12.65;;;410.30;2355.20;;;;;;5030071;28;20034;-60
2023/06/05 03:53:53;;;;;;;24.30;11.85;;;410.50;2355.20;;;;;;5030049;28;20025;-59
2023/06/05 03:56:19;;;;;;;26.02;11.50;;;435.20;2355.20;;;;;;5029937;28;20025;-61
2023/06/05 03:58:45;;;;;;;18.70;11.32;;;435.30;2355.20;;;;;;5030282;28;20166;-63
2023/06/05 04:01:12;;;;;;;16.77;10.80;;;435.20;2355.20;;;;;;5011187;28;20025;-59
2023/06/05 04:03:38;;;;;;;16.40;11.90;;;435.30;2355.20;;;;;;5021738;28;20065;-60
2023/06/05 04:06:05;;;;;;;17.65;11.68;;;435.30;2355.20;;;;;;5029791;28;20065;-59
2023/06/05 04:08:32;;;;;;;16.08;10.68;;;435.30;2355.20;;;;;;5029789;28;20036;-59
2023/06/05 04:10:58;;;;;;;13.98;10.70;;;435.30;2355.20;;;;;;5029836;28;20033;-59
2023/06/05 04:13:24;;;;;;;25.48;11.73;;;435.50;2355.20;;;;;;5029831;28;20025;-60
2023/06/05 04:15:50;;;;;;;21.60;12.32;;;435.70;2355.20;;;;;;5029400;28;20049;-63
2023/06/05 04:18:16;;;;;;;25.52;12.60;;;435.60;2355.20;;;;;;5029369;28;20460;-60
2023/06/05 04:20:41;;;;;;;21.08;13.27;;;435.60;2355.20;;;;;;5026427;28;20032;-59
2023/06/05 04:23:07;;;;;;;20.33;13.32;;;435.50;2355.20;;;;;;5018999;28;20022;-60
2023/06/05 04:25:33;;;;;;;30.35;14.27;;;435.60;2355.20;;;;;;5027783;28;20029;-60
2023/06/05 04:27:59;;;;;;;46.92;15.05;;;435.60;2355.20;;;;;;5017332;28;20088;-60
2023/06/05 04:30:25;;;;;;;38.83;15.85;;;435.70;2355.20;;;;;;5029598;28;20061;-58
2023/06/05 04:32:56;;;;;;;26.52;15.38;;;435.80;2355.20;;;;;;5028867;28;20417;-64
2023/06/05 04:35:22;;;;;;;104.22;18.75;;;435.90;2355.20;;;;;;5029050;28;20526;-59
2023/06/05 04:37:48;;;;;;;25.40;14.35;;;435.90;2355.20;;;;;;5029197;28;20048;-60
2023/06/05 04:40:16;;;;;;;20.50;14.02;;;460.80;2380.80;;;;;;5028905;28;20053;-59
2023/06/05 04:42:42;;;;;;;17.75;11.88;;;436.10;2355.20;;;;;;5028978;28;20025;-60
2023/06/05 04:45:09;;;;;;;12.05;10.38;;;460.80;2380.80;;;;;;5029044;28;20026;-64
2023/06/05 04:47:34;;;;;;;13.48;9.95;;;461.10;2380.80;;;;;;5028819;28;20109;-63
2023/06/05 04:50:03;;;;;;;15.32;9.48;;;461.50;2380.80;;;;;;5028894;28;20116;-59
2023/06/05 04:52:33;;;;;;;10.70;8.88;;;486.70;2380.80;;;;;;5028963;28;20028;-60
2023/06/05 04:55:02;;;;;;;9.52;7.68;;;512.30;2380.80;;;;;;5028859;28;20757;-64
2023/06/05 04:57:29;;;;;;;9.50;6.25;;;563.90;2432.00;;;;;;5028782;28;20033;-59
2023/06/05 04:59:56;;;;;;;7.70;6.63;;;614.80;2432.00;;;;;;5028936;28;20053;-60
2023/06/05 05:02:23;;;;;;;8.20;6.45;;;666.00;2201.60;;;;;;5028205;28;20377;-60
2023/06/05 05:04:48;;;;;;;5.90;5.30;;;717.00;1920.00;;;;;;5028766;28;20021;-60
2023/06/05 05:07:17;;;;;;;7.53;5.95;;;717.30;1894.40;;;;;;5027678;28;20079;-65
2023/06/05 05:09:46;;;;;;;6.70;5.80;;;743.20;1817.60;;;;;;5024984;28;20068;-65
2023/06/05 05:12:11;;;;;;;6.43;5.82;;;793.90;1715.20;;;;;;5014624;28;20048;-60
2023/06/05 05:14:39;;;;;;;9.30;6.10;;;819.30;1664.00;;;;;;5028958;28;20475;-60
2023/06/05 05:17:05;;;;;;;7.30;6.60;;;844.90;1612.80;;;;;;5028511;28;20276;-60
2023/06/05 05:19:31;;;;;;;7.53;5.88;;;870.60;1536.00;;;;;;5028499;28;20472;-60
2023/06/05 05:21:57;;;;;;;6.30;5.70;;;870.80;1510.40;;;;;;5028670;28;20057;-61
2023/06/05 05:24:24;;;;;;;8.02;6.50;;;896.90;1408.00;;;;;;5028958;28;20476;-60
2023/06/05 05:26:51;;;;;;;6.68;6.07;;;896.30;1408.00;;;;;;5030675;28;20104;-60
2023/06/05 05:29:17;;;;;;;7.45;6.75;;;921.60;1408.00;;;;;;5032647;28;20033;-60
2023/06/05 05:31:44;;;;;;;7.07;6.43;;;947.80;1305.60;;;;;;5032387;28;20018;-61
2023/06/05 05:34:10;;;;;;;7.35;6.65;;;973.60;1280.00;;;;;;5032644;28;20422;-60
2023/06/05 05:36:36;;;;;;;10.18;7.40;;;998.40;1280.00;;;;;;5032706;28;20030;-60
2023/06/05 05:39:02;;;;;;;9.65;8.65;;;947.60;1280.00;;;;;;5032564;28;20392;-60
2023/06/05 05:41:28;;;;;;;11.40;10.32;;;870.60;1433.60;;;;;;5032346;28;20095;-60
2023/06/05 05:43:54;;;;;;;15.07;12.27;;;794.40;1536.00;;;;;;5032620;28;20033;-60
2023/06/05 05:46:20;;;;;;;13.80;12.40;;;768.40;1612.80;;;;;;5032106;28;20610;-60
2023/06/05 05:48:45;;;;;;;16.80;13.82;;;793.70;1587.20;;;;;;5032274;28;20174;-59
2023/06/05 05:51:11;;;;;;;18.52;16.27;;;870.70;1433.60;;;;;;5031940;28;20034;-60
2023/06/05 05:53:37;;;;;;;21.13;18.83;;;947.30;1305.60;;;;;;5032264;28;20026;-60
2023/06/05 05:56:06;;;;;;;28.38;24.48;;;999.00;1228.80;;;;;;5032447;28;20037;-62
2023/06/05 05:58:32;;;;;;;33.38;26.67;;;999.10;1228.80;;;;;;5032228;28;20021;-61
2023/06/05 06:00:59;;;;;;;39.97;31.52;;;973.40;1228.80;;;;;;5032112;28;20025;-60
2023/06/05 06:03:26;;;;;;;37.28;32.78;;;947.20;1305.60;;;;;;5032217;28;20049;-60
2023/06/05 06:05:52;;;;;;;40.33;33.80;;;947.90;1280.00;;;;;;5032166;28;20083;-60
2023/06/05 06:08:18;;;;;;;38.70;32.13;;;998.80;1254.40;;;;;;5032245;28;20026;-61
2023/06/05 06:10:45;;;;;;;41.30;35.35;;;947.70;1280.00;;;;;;5032279;28;20029;-61
2023/06/05 06:13:11;;;;;;;46.60;40.38;;;973.10;1254.40;;;;;;5031883;28;20044;-64
2023/06/05 06:15:38;;;;;;;44.35;39.55;;;973.50;1254.40;;;;;;5031477;28;20487;-60
2023/06/05 06:18:07;;;;;;;53.50;43.05;;;922.00;1331.20;;;;;;5031530;28;20026;-62
2023/06/05 06:20:34;;;;;;;52.58;46.83;;;947.70;1305.60;;;;;;5031644;28;20056;-64
2023/06/05 06:23:00;;;;;;;54.70;46.08;;;972.80;1280.00;;;;;;5031699;28;20033;-61
2023/06/05 06:25:28;;;;;;;54.45;43.85;;;1024.60;1177.60;;;;;;5031757;28;20022;-64
2023/06/05 06:27:55;;;;;;;54.13;45.72;;;947.70;1280.00;;;;;;5031824;28;20104;-61
2023/06/05 06:30:21;;;;;;;52.08;44.35;;;973.10;1280.00;;;;;;5031504;28;20120;-62
2023/06/05 06:32:50;;;;;;;56.78;45.08;;;948.10;1254.40;;;;;;5031252;28;20420;-61
2023/06/05 06:35:15;;;;;;;53.00;43.70;;;896.40;1356.80;;;;;;5031459;28;20060;-60
2023/06/05 06:37:42;;;;;;;50.28;42.28;;;973.70;1228.80;;;;;;5029913;28;20025;-60
2023/06/05 06:40:09;;;;;;;57.53;41.97;;;1024.60;1177.60;;;;;;5031273;28;20075;-62
2023/06/05 06:42:35;;;;;;;48.72;38.38;;;1049.70;1177.60;;;;;;5031844;28;20418;-63
2023/06/05 06:45:01;;;;;;;48.85;38.08;;;999.20;1203.20;;;;;;5031069;28;20029;-61
2023/06/05 06:47:27;;;;;;;52.83;41.33;;;999.20;1203.20;;;;;;5031502;28;20075;-62
2023/06/05 06:49:53;;;;;;;38.45;31.83;;;1075.30;1152.00;;;;;;5030898;28;20038;-60
2023/06/05 06:52:20;;;;;;;37.10;32.50;;;1024.40;1177.60;;;;;;5030969;28;20426;-62
2023/06/05 06:54:46;;;;;;;35.03;29.88;;;998.70;1228.80;;;;;;5031234;28;20032;-65
2023/06/05 06:57:12;;;;;;;36.60;29.88;;;1024.60;1177.60;;;;;;5031101;28;20071;-62
2023/06/05 06:59:40;;;;;;;35.28;28.88;;;998.60;1228.80;;;;;;5031337;28;20026;-60
2023/06/05 07:02:13;;;;;;;28.63;24.77;;;1050.40;1152.00;;;;;;5028022;28;20547;-66
2023/06/05 07:04:43;;;;;;;30.40;27.27;;;1049.80;1177.60;;;;;;5030973;28;20032;-64
2023/06/05 07:07:14;;;;;;;32.15;28.35;;;1024.00;1203.20;;;;;;5030433;28;20040;-61
2023/06/05 07:09:45;;;;;;;34.15;30.08;;;1049.90;1177.60;;;;;;5030789;28;20041;-61
2023/06/05 07:12:12;;;;;;;39.13;35.05;;;1075.70;1100.80;;;;;;5030559;28;20025;-61
2023/06/05 07:14:38;;;;;;;37.42;30.40;;;998.70;1254.40;;;;;;5030883;28;20033;-60
2023/06/05 07:17:05;;;;;;;38.35;31.13;;;1024.00;1203.20;;;;;;5030702;28;20426;-61
2023/06/05 07:19:32;;;;;;;33.05;24.92;;;1024.60;1177.60;;;;;;5030652;28;20044;-61
2023/06/05 07:21:59;;;;;;;23.20;20.83;;;998.60;1228.80;;;;;;5030766;28;20045;-61
2023/06/05 07:24:25;;;;;;;20.50;18.35;;;998.90;1203.20;;;;;;5030770;28;20057;-65
2023/06/05 07:26:53;;;;;;;20.85;18.73;;;999.20;1203.20;;;;;;5030502;28;20025;-60
2023/06/05 07:29:20;;;;;;;20.65;18.63;;;1050.50;1126.40;;;;;;5030091;28;20025;-66
2023/06/05 07:31:48;;;;;;;19.58;17.33;;;1126.60;1100.80;;;;;;5030109;28;20013;-65
2023/06/05 07:34:15;;;;;;;14.25;12.90;;;1127.00;1075.20;;;;;;5030583;28;20056;-61
2023/06/05 07:36:41;;;;;;;13.80;12.60;;;1126.60;1100.80;;;;;;5029652;28;20059;-61
2023/06/05 07:39:07;;;;;;;12.02;11.02;;;1101.40;1100.80;;;;;;5030454;28;20030;-62
2023/06/05 07:41:32;;;;;;;12.75;11.75;;;1101.50;1100.80;;;;;;5030040;28;20056;-62
2023/06/05 07:43:58;;;;;;;10.07;9.10;;;1101.50;1100.80;;;;;;5030545;28;20248;-62
2023/06/05 07:46:24;;;;;;;10.40;9.60;;;1076.10;1100.80;;;;;;5029999;28;20037;-61
2023/06/05 07:48:49;;;;;;;9.27;8.27;;;1075.70;1126.40;;;;;;5029199;28;20464;-61
2023/06/05 07:51:17;;;;;;;9.20;8.43;;;1076.10;1100.80;;;;;;5030094;28;20038;-61
2023/06/05 07:53:44;;;;;;;9.93;8.93;;;1101.10;1100.80;;;;;;5029977;28;20017;-66
2023/06/05 07:56:11;;;;;;;9.45;8.85;;;1076.10;1100.80;;;;;;5029566;28;20064;-61
2023/06/05 07:58:39;;;;;;;9.18;8.48;;;1101.00;1126.40;;;;;;5030002;28;20056;-64
2023/06/05 08:01:06;;;;;;;11.35;8.23;;;1101.50;1100.80;;;;;;5029692;28;20501;-61
2023/06/05 08:03:32;;;;;;;12.85;8.20;;;1101.40;1100.80;;;;;;5029548;28;20038;-61
2023/06/05 08:05:58;;;;;;;7.50;6.90;;;1101.20;1100.80;;;;;;5029696;28;20087;-61
2023/06/05 08:08:24;;;;;;;10.98;8.82;;;1101.40;1100.80;;;;;;5030084;28;20032;-61
2023/06/05 08:10:51;;;;;;;8.40;7.50;;;1101.30;1100.80;;;;;;5029526;28;20407;-61
2023/06/05 08:13:16;;;;;;;8.25;7.45;;;1050.00;1152.00;;;;;;5029647;28;20029;-63
2023/06/05 08:15:42;;;;;;;7.95;7.15;;;973.40;1203.20;;;;;;5029366;28;20074;-65
2023/06/05 08:18:08;;;;;;;6.38;5.78;;;870.50;1382.40;;;;;;5029584;28;20014;-60
2023/06/05 08:20:34;;;;;;;5.45;4.95;;;820.10;1459.20;;;;;;5029597;28;20040;-60
2023/06/05 08:23:01;;;;;;;7.22;5.55;;;819.60;1510.40;;;;;;5029374;28;20053;-61
2023/06/05 08:25:27;;;;;;;9.18;5.70;;;793.70;1561.60;;;;;;5029225;28;20562;-61
2023/06/05 08:27:53;;;;;;;6.70;4.90;;;793.90;1561.60;;;;;;5029368;28;20068;-60
2023/06/05 08:30:20;;;;;;;7.75;5.25;;;793.80;1612.80;;;;;;5029249;28;20034;-63
2023/06/05 08:32:46;;;;;;;7.40;5.20;;;793.70;1612.80;;;;;;5016592;28;20068;-60
2023/06/05 08:35:12;;;;;;;8.13;5.55;;;768.90;1587.20;;;;;;5029167;28;20034;-64
2023/06/05 08:37:38;;;;;;;6.97;4.95;;;743.20;1664.00;;;;;;5028948;28;20030;-60
2023/06/05 08:40:14;;;;;;;5.72;5.00;;;742.80;1664.00;;;;;;5028901;28;20030;-61
2023/06/05 08:42:40;;;;;;;5.78;5.15;;;742.60;1664.00;;;;;;5029015;28;20029;-61
2023/06/05 08:45:09;;;;;;;7.95;6.00;;;742.50;1689.60;;;;;;5029014;28;20022;-60
2023/06/05 08:47:38;;;;;;;6.72;5.05;;;742.50;1715.20;;;;;;5029151;28;20021;-64
2023/06/05 08:50:08;;;;;;;7.68;5.28;;;742.60;1664.00;;;;;;5028787;28;20033;-60
2023/06/05 08:52:37;;;;;;;10.07;5.95;;;743.10;1664.00;;;;;;5029133;28;20025;-60
2023/06/05 08:55:07;;;;;;;17.23;5.85;;;743.20;1664.00;;;;;;5028674;28;20025;-60
2023/06/05 08:57:37;;;;;;;7.05;5.18;;;742.80;1689.60;;;;;;5028666;28;20033;-61
2023/06/05 09:00:07;;;;;;;7.18;5.75;;;742.90;1689.60;;;;;;5028548;28;20018;-60
2023/06/05 09:02:34;;;;;;;6.20;4.28;;;742.90;1689.60;;;;;;5027408;28;20357;-60
2023/06/05 09:05:00;;;;;;;7.90;5.18;;;717.70;1689.60;;;;;;5028684;28;20026;-60
2023/06/05 09:07:29;;;;;;;7.07;5.20;;;717.70;1715.20;;;;;;5028518;28;20034;-60
2023/06/05 09:09:54;;;;;;;5.80;4.72;;;717.10;1740.80;;;;;;5029004;28;20069;-60
2023/06/05 09:12:20;;;;;;;11.27;5.68;;;717.20;1766.40;;;;;;5028605;28;20820;-63
2023/06/05 09:14:46;;;;;;;13.52;5.82;;;717.20;1766.40;;;;;;5029073;28;20029;-61
2023/06/05 09:17:13;;;;;;;7.70;4.50;;;717.70;1740.80;;;;;;5028377;28;20068;-60
2023/06/05 09:19:42;;;;;;;8.55;4.88;;;717.50;1715.20;;;;;;5028756;28;20025;-61
2023/06/05 09:22:09;;;;;;;9.27;4.95;;;717.30;1766.40;;;;;;5028748;28;20029;-62
2023/06/05 09:24:36;;;;;;;5.15;4.47;;;717.10;1766.40;;;;;;5028748;28;20026;-60
2023/06/05 09:27:16;;;;;;;8.27;5.13;;;717.10;1766.40;;;;;;5028457;28;20412;-61
2023/06/05 09:29:43;;;;;;;7.57;4.63;;;717.50;1740.80;;;;;;5028517;28;20071;-61
2023/06/05 09:32:15;;;;;;;7.05;5.05;;;717.50;1715.20;;;;;;5028041;28;20017;-60
2023/06/05 09:34:41;;;;;;;11.82;5.10;;;742.80;1715.20;;;;;;5028375;28;20014;-63
2023/06/05 09:37:11;;;;;;;7.70;5.82;;;742.60;1740.80;;;;;;5028445;28;20056;-60
2023/06/05 09:39:40;;;;;;;9.18;5.90;;;742.90;1715.20;;;;;;5028968;28;20029;-60
2023/06/05 09:42:06;;;;;;;7.18;5.30;;;742.80;1740.80;;;;;;5028261;28;20091;-60
2023/06/05 09:44:33;;;;;;;7.50;4.75;;;742.60;1740.80;;;;;;5028703;28;20025;-60
2023/06/05 09:47:08;;;;;;;5.10;4.57;;;743.20;1715.20;;;;;;5028370;28;20104;-63
2023/06/05 09:49:40;;;;;;;7.55;4.50;;;743.10;1715.20;;;;;;5028601;28;20049;-61
2023/06/05 09:52:08;;;;;;;6.72;4.90;;;743.30;1689.60;;;;;;5028498;28;20579;-60
2023/06/05 09:54:36;;;;;;;5.90;5.28;;;743.30;1715.20;;;;;;5028587;28;20052;-60
2023/06/05 09:57:04;;;;;;;7.47;5.95;;;743.30;1689.60;;;;;;5028232;28;20077;-61
2023/06/05 09:59:34;;;;;;;8.25;5.65;;;743.10;1740.80;;;;;;5028177;28;20022;-60
2023/06/05 10:02:05;;;;;;;8.50;5.75;;;768.30;1689.60;;;;;;5028260;28;20029;-63
2023/06/05 10:04:56;;;;;;;6.43;5.10;;;743.30;1689.60;;;;;;5028238;28;20021;-61
2023/06/05 10:07:23;;;;;;;7.55;5.22;;;768.40;1664.00;;;;;;5028000;28;20116;-63
2023/06/05 10:09:50;;;;;;;7.97;5.13;;;768.40;1715.20;;;;;;5028413;28;20046;-63
2023/06/05 10:12:16;;;;;;;7.35;4.47;;;768.40;1689.60;;;;;;5029515;28;20017;-60
2023/06/05 10:14:43;;;;;;;23.33;10.80;;;743.20;1689.60;;;;;;5032038;28;20472;-61
2023/06/05 10:17:11;;;;;;;10.10;5.63;;;768.50;1689.60;;;;;;5031962;28;20030;-61
2023/06/05 10:19:40;;;;;;;6.78;4.13;;;768.10;1689.60;;;;;;5031838;28;20037;-60
2023/06/05 10:22:06;;;;;;;6.78;5.05;;;743.30;1689.60;;;;;;5031983;28;20025;-60
2023/06/05 10:24:37;;;;;;;5.45;4.78;;;742.90;1740.80;;;;;;5031621;28;20017;-60
2023/06/05 10:27:16;;;;;;;7.63;5.50;;;743.20;1766.40;;;;;;5031489;28;20687;-61
2023/06/05 10:29:47;;;;;;;8.05;4.65;;;768.30;1715.20;;;;;;5031364;28;20171;-60
2023/06/05 10:32:28;;;;;;;5.65;5.05;;;768.10;1740.80;;;;;;5031705;28;20033;-60
2023/06/05 10:35:06;;;;;;;5.47;4.93;;;743.10;1740.80;;;;;;5031383;28;20472;-64
2023/06/05 10:37:37;;;;;;;27.15;7.97;;;743.10;1766.40;;;;;;5031502;28;20392;-60
2023/06/05 10:40:04;;;;;;;6.72;5.47;;;768.00;1766.40;;;;;;5025008;28;20049;-60
2023/06/05 10:42:30;;;;;;;9.45;5.95;;;742.90;1792.00;;;;;;5024508;28;20515;-62
2023/06/05 10:44:56;;;;;;;7.63;5.28;;;743.00;1817.60;;;;;;5031151;28;20121;-60
2023/06/05 10:47:37;;;;;;;7.95;6.05;;;742.70;1843.20;;;;;;5030955;28;20022;-60
2023/06/05 10:50:18;;;;;;;7.15;5.72;;;742.50;1868.80;;;;;;5031138;28;20037;-61
2023/06/05 10:52:44;;;;;;;8.77;5.88;;;717.40;1868.80;;;;;;5031152;28;20460;-62
2023/06/05 10:55:12;;;;;;;8.00;5.00;;;742.60;1920.00;;;;;;5030593;28;20460;-61
2023/06/05 10:58:09;;;;;;;8.27;5.32;;;717.70;1868.80;;;;;;5031209;28;20056;-60
2023/06/05 11:00:37;;;;;;;6.35;5.28;;;717.40;1894.40;;;;;;5031462;28;20096;-60
2023/06/05 11:03:03;;;;;;;8.85;5.97;;;717.50;1920.00;;;;;;5030714;28;20076;-61
2023/06/05 11:05:30;;;;;;;7.07;5.50;;;717.20;1894.40;;;;;;5030629;28;20022;-61
2023/06/05 11:08:15;;;;;;;8.38;5.97;;;717.50;1920.00;;;;;;5031436;28;20448;-60
2023/06/05 11:11:04;;;;;;;9.32;5.60;;;717.50;1894.40;;;;;;5030644;28;20372;-60
2023/06/05 11:13:53;;;;;;;8.63;6.25;;;717.40;1868.80;;;;;;5030805;28;20025;-60
2023/06/05 11:16:30;;;;;;;11.20;6.55;;;742.50;1894.40;;;;;;5030711;28;20029;-61
2023/06/05 11:19:21;;;;;;;6.75;5.85;;;743.00;1894.40;;;;;;5030629;28;20029;-61
2023/06/05 11:22:09;;;;;;;5.90;5.30;;;743.10;1792.00;;;;;;5030706;28;20032;-60
2023/06/05 11:24:38;;;;;;;5.60;5.00;;;742.80;1843.20;;;;;;5030143;28;20029;-60
2023/06/05 11:27:06;;;;;;;8.68;5.88;;;742.90;1817.60;;;;;;5030449;28;20376;-60
2023/06/05 11:29:32;;;;;;;9.00;5.72;;;742.70;1817.60;;;;;;5030678;28;20424;-60
2023/06/05 11:31:59;;;;;;;6.22;5.25;;;742.80;1843.20;;;;;;5030678;28;20029;-60
2023/06/05 11:34:27;;;;;;;6.85;5.78;;;742.80;1894.40;;;;;;5030824;28;20387;-63
2023/06/05 11:36:53;;;;;;;5.90;5.15;;;743.10;1817.60;;;;;;5030090;28;20083;-60
2023/06/05 11:39:19;;;;;;;5.50;5.00;;;742.90;1792.00;;;;;;5030161;28;20026;-60
2023/06/05 11:41:51;;;;;;;11.25;5.80;;;743.00;1817.60;;;;;;5030138;28;20143;-60
2023/06/05 11:44:32;;;;;;;6.40;5.53;;;743.10;1817.60;;;;;;5030340;28;20475;-61
2023/06/05 11:46:58;;;;;;;5.20;4.70;;;743.30;1843.20;;;;;;5030903;28;20033;-63
2023/06/05 11:49:28;;;;;;;7.60;5.40;;;742.80;1792.00;;;;;;5034316;28;20025;-60
2023/06/05 11:51:55;;;;;;;6.63;5.30;;;742.90;1817.60;;;;;;5034046;28;20308;-60
2023/06/05 11:54:29;;;;;;;6.35;5.63;;;743.20;1843.20;;;;;;5033893;28;20029;-60
2023/06/05 11:56:59;;;;;;;5.75;5.15;;;743.20;1792.00;;;;;;5034306;28;20546;-59
2023/06/05 11:59:25;;;;;;;6.43;5.68;;;768.30;1740.80;;;;;;5034187;28;20025;-63
2023/06/05 12:01:54;;;;;;;7.15;5.88;;;768.90;1740.80;;;;;;5034081;28;20029;-60
2023/06/05 12:04:20;;;;;;;6.43;5.60;;;768.60;1740.80;;;;;;5033753;28;20040;-60
2023/06/05 12:06:47;;;;;;;7.07;5.63;;;768.10;1766.40;;;;;;5033761;28;20034;-61
2023/06/05 12:09:15;;;;;;;6.32;5.50;;;768.10;1792.00;;;;;;5034091;28;20018;-59
2023/06/05 12:11:42;;;;;;;9.48;5.68;;;743.30;1868.80;;;;;;5033846;28;20037;-63